sensor_id;sensor_type;location;lat;lon;timestamp;temperature;humidity
12847;DHT22;6492;48.128;8.320;2023-08-06T00:02:06;10.80;60.10
12847;DHT22;6492;48.128;8.320;2023-08-06T00:06:08;10.80;59.70
12847;DHT22;6492;48.128;8.320;2023-08-06T00:10:09;10.90;59.10
12847;DHT22;6492;48.128;8.320;2023-08-06T00:14:12;10.90;58.70
12847;DHT22;6492;48.128;8.320;2023-08-06T00:18:15;11.00;59.10
12847;DHT22;6492;48.128;8.320;2023-08-06T00:22:17;11.10;59.40
12847;DHT22;6492;48.128;8.320;2023-08-06T00:26:19;11.10;60.30
12847;DHT22;6492;48.128;8.320;2023-08-06T00:30:22;11.10;61.00
12847;DHT22;6492;48.128;8.320;2023-08-06T00:34:24;11.10;60.10
12847;DHT22;6492;48.128;8.320;2023-08-06T00:38:25;11.00;60.10
12847;DHT22;6492;48.128;8.320;2023-08-06T00:42:27;11.00;62.20
12847;DHT22;6492;48.128;8.320;2023-08-06T00:46:31;10.90;63.10
12847;DHT22;6492;48.128;8.320;2023-08-06T00:50:34;10.90;63.20
12847;DHT22;6492;48.128;8.320;2023-08-06T00:54:36;10.80;63.60
12847;DHT22;6492;48.128;8.320;2023-08-06T00:58:39;10.80;63.90
12847;DHT22;6492;48.128;8.320;2023-08-06T01:02:42;10.70;63.50
12847;DHT22;6492;48.128;8.320;2023-08-06T01:06:46;10.70;64.60
12847;DHT22;6492;48.128;8.320;2023-08-06T01:10:58;10.70;65.70
12847;DHT22;6492;48.128;8.320;2023-08-06T01:15:06;10.70;66.30
12847;DHT22;6492;48.128;8.320;2023-08-06T01:19:17;10.80;66.80
12847;DHT22;6492;48.128;8.320;2023-08-06T01:23:21;10.90;66.10
12847;DHT22;6492;48.128;8.320;2023-08-06T01:27:28;11.00;65.60
12847;DHT22;6492;48.128;8.320;2023-08-06T01:31:35;11.00;64.60
12847;DHT22;6492;48.128;8.320;2023-08-06T01:35:38;11.10;63.30
12847;DHT22;6492;48.128;8.320;2023-08-06T01:39:42;11.00;61.70
12847;DHT22;6492;48.128;8.320;2023-08-06T01:43:44;11.10;63.30
12847;DHT22;6492;48.128;8.320;2023-08-06T01:47:46;11.10;61.30
12847;DHT22;6492;48.128;8.320;2023-08-06T01:51:48;11.10;61.30
12847;DHT22;6492;48.128;8.320;2023-08-06T01:55:51;11.20;60.90
12847;DHT22;6492;48.128;8.320;2023-08-06T01:59:52;11.30;59.60
12847;DHT22;6492;48.128;8.320;2023-08-06T02:03:54;11.30;59.70
12847;DHT22;6492;48.128;8.320;2023-08-06T02:07:56;11.40;58.30
12847;DHT22;6492;48.128;8.320;2023-08-06T02:11:59;11.40;59.80
12847;DHT22;6492;48.128;8.320;2023-08-06T02:16:01;11.40;60.20
12847;DHT22;6492;48.128;8.320;2023-08-06T02:20:03;11.30;61.50
12847;DHT22;6492;48.128;8.320;2023-08-06T02:24:05;11.30;61.00
12847;DHT22;6492;48.128;8.320;2023-08-06T02:28:08;11.20;61.50
12847;DHT22;6492;48.128;8.320;2023-08-06T02:32:10;11.10;62.10
12847;DHT22;6492;48.128;8.320;2023-08-06T02:36:12;11.10;62.70
12847;DHT22;6492;48.128;8.320;2023-08-06T02:40:14;11.00;64.00
12847;DHT22;6492;48.128;8.320;2023-08-06T02:44:17;11.00;64.80
12847;DHT22;6492;48.128;8.320;2023-08-06T02:48:18;10.90;66.50
12847;DHT22;6492;48.128;8.320;2023-08-06T02:52:20;10.90;67.40
12847;DHT22;6492;48.128;8.320;2023-08-06T02:56:22;10.90;68.20
12847;DHT22;6492;48.128;8.320;2023-08-06T03:00:25;10.80;68.80
12847;DHT22;6492;48.128;8.320;2023-08-06T03:04:27;10.80;69.70
12847;DHT22;6492;48.128;8.320;2023-08-06T03:08:29;10.80;70.30
12847;DHT22;6492;48.128;8.320;2023-08-06T03:12:30;10.60;68.50
12847;DHT22;6492;48.128;8.320;2023-08-06T03:16:34;10.50;67.60
12847;DHT22;6492;48.128;8.320;2023-08-06T03:20:36;10.30;67.50
12847;DHT22;6492;48.128;8.320;2023-08-06T03:24:37;10.20;66.40
12847;DHT22;6492;48.128;8.320;2023-08-06T03:28:39;10.00;65.40
12847;DHT22;6492;48.128;8.320;2023-08-06T03:32:42;9.90;66.50
12847;DHT22;6492;48.128;8.320;2023-08-06T03:36:44;9.80;67.70
12847;DHT22;6492;48.128;8.320;2023-08-06T03:40:46;9.80;67.10
12847;DHT22;6492;48.128;8.320;2023-08-06T03:44:56;9.70;68.20
12847;DHT22;6492;48.128;8.320;2023-08-06T03:48:58;9.60;68.30
12847;DHT22;6492;48.128;8.320;2023-08-06T03:53:00;9.50;68.60
12847;DHT22;6492;48.128;8.320;2023-08-06T03:57:02;9.40;68.90
12847;DHT22;6492;48.128;8.320;2023-08-06T04:01:05;9.40;69.90
12847;DHT22;6492;48.128;8.320;2023-08-06T04:05:07;9.30;70.60
12847;DHT22;6492;48.128;8.320;2023-08-06T04:09:09;9.30;71.00
12847;DHT22;6492;48.128;8.320;2023-08-06T04:13:11;9.30;71.40
12847;DHT22;6492;48.128;8.320;2023-08-06T04:17:14;9.40;71.70
12847;DHT22;6492;48.128;8.320;2023-08-06T04:21:16;9.30;71.90
12847;DHT22;6492;48.128;8.320;2023-08-06T04:25:17;9.30;72.30
12847;DHT22;6492;48.128;8.320;2023-08-06T04:29:21;9.40;72.60
12847;DHT22;6492;48.128;8.320;2023-08-06T04:33:24;9.40;72.80
12847;DHT22;6492;48.128;8.320;2023-08-06T04:37:26;9.50;72.90
12847;DHT22;6492;48.128;8.320;2023-08-06T04:41:27;9.50;73.00
12847;DHT22;6492;48.128;8.320;2023-08-06T04:45:29;9.60;73.10
12847;DHT22;6492;48.128;8.320;2023-08-06T04:49:32;9.70;72.70
12847;DHT22;6492;48.128;8.320;2023-08-06T04:53:34;9.70;71.80
12847;DHT22;6492;48.128;8.320;2023-08-06T04:57:36;9.70;71.20
12847;DHT22;6492;48.128;8.320;2023-08-06T05:01:37;9.60;70.30
12847;DHT22;6492;48.128;8.320;2023-08-06T05:05:41;9.60;70.00
12847;DHT22;6492;48.128;8.320;2023-08-06T05:09:43;9.60;70.20
12847;DHT22;6492;48.128;8.320;2023-08-06T05:13:44;9.60;70.60
12847;DHT22;6492;48.128;8.320;2023-08-06T05:17:46;9.60;70.40
12847;DHT22;6492;48.128;8.320;2023-08-06T05:21:50;9.60;70.60
12847;DHT22;6492;48.128;8.320;2023-08-06T05:25:51;9.70;70.90
12847;DHT22;6492;48.128;8.320;2023-08-06T05:29:55;9.80;70.70
12847;DHT22;6492;48.128;8.320;2023-08-06T05:33:57;9.90;71.10
12847;DHT22;6492;48.128;8.320;2023-08-06T05:38:00;10.00;71.00
12847;DHT22;6492;48.128;8.320;2023-08-06T05:42:02;10.00;69.70
12847;DHT22;6492;48.128;8.320;2023-08-06T05:46:04;10.00;69.80
12847;DHT22;6492;48.128;8.320;2023-08-06T05:50:07;10.00;67.70
12847;DHT22;6492;48.128;8.320;2023-08-06T05:54:10;9.90;67.40
12847;DHT22;6492;48.128;8.320;2023-08-06T05:58:12;9.90;67.40
12847;DHT22;6492;48.128;8.320;2023-08-06T06:02:14;9.80;67.60
12847;DHT22;6492;48.128;8.320;2023-08-06T06:06:16;9.90;69.60
12847;DHT22;6492;48.128;8.320;2023-08-06T06:10:20;10.10;68.70
12847;DHT22;6492;48.128;8.320;2023-08-06T06:14:22;10.20;66.90
12847;DHT22;6492;48.128;8.320;2023-08-06T06:18:24;10.30;67.30
12847;DHT22;6492;48.128;8.320;2023-08-06T06:22:25;10.40;65.90
12847;DHT22;6492;48.128;8.320;2023-08-06T06:26:28;10.30;64.60
12847;DHT22;6492;48.128;8.320;2023-08-06T06:30:30;10.30;65.20
12847;DHT22;6492;48.128;8.320;2023-08-06T06:34:32;10.30;65.50
12847;DHT22;6492;48.128;8.320;2023-08-06T06:38:34;10.30;65.70
12847;DHT22;6492;48.128;8.320;2023-08-06T06:42:37;10.40;66.10
12847;DHT22;6492;48.128;8.320;2023-08-06T06:46:38;10.50;65.30
12847;DHT22;6492;48.128;8.320;2023-08-06T06:50:40;10.40;64.10
12847;DHT22;6492;48.128;8.320;2023-08-06T06:54:42;10.30;62.40
12847;DHT22;6492;48.128;8.320;2023-08-06T06:58:45;10.10;62.60
12847;DHT22;6492;48.128;8.320;2023-08-06T07:02:47;9.90;64.10
12847;DHT22;6492;48.128;8.320;2023-08-06T07:06:48;9.90;66.70
12847;DHT22;6492;48.128;8.320;2023-08-06T07:10:59;9.90;67.80
12847;DHT22;6492;48.128;8.320;2023-08-06T07:15:05;9.80;68.30
12847;DHT22;6492;48.128;8.320;2023-08-06T07:19:07;9.80;69.30
12847;DHT22;6492;48.128;8.320;2023-08-06T07:23:09;9.90;69.50
12847;DHT22;6492;48.128;8.320;2023-08-06T07:27:11;9.80;68.80
12847;DHT22;6492;48.128;8.320;2023-08-06T07:31:14;9.90;69.80
12847;DHT22;6492;48.128;8.320;2023-08-06T07:35:16;10.00;70.60
12847;DHT22;6492;48.128;8.320;2023-08-06T07:39:17;10.10;71.30
12847;DHT22;6492;48.128;8.320;2023-08-06T07:43:19;10.10;68.90
12847;DHT22;6492;48.128;8.320;2023-08-06T07:47:22;10.10;69.10
12847;DHT22;6492;48.128;8.320;2023-08-06T07:51:24;10.10;68.00
12847;DHT22;6492;48.128;8.320;2023-08-06T07:55:26;10.10;67.10
12847;DHT22;6492;48.128;8.320;2023-08-06T07:59:28;10.20;69.10
12847;DHT22;6492;48.128;8.320;2023-08-06T08:03:31;10.30;70.10
12847;DHT22;6492;48.128;8.320;2023-08-06T08:07:32;10.30;69.40
12847;DHT22;6492;48.128;8.320;2023-08-06T08:11:34;10.20;68.90
12847;DHT22;6492;48.128;8.320;2023-08-06T08:15:36;10.20;69.00
12847;DHT22;6492;48.128;8.320;2023-08-06T08:19:40;10.30;70.50
12847;DHT22;6492;48.128;8.320;2023-08-06T08:23:41;10.40;70.60
12847;DHT22;6492;48.128;8.320;2023-08-06T08:27:44;10.60;72.50
12847;DHT22;6492;48.128;8.320;2023-08-06T08:31:46;11.00;72.00
12847;DHT22;6492;48.128;8.320;2023-08-06T08:35:51;11.10;67.00
12847;DHT22;6492;48.128;8.320;2023-08-06T08:39:52;11.00;63.90
12847;DHT22;6492;48.128;8.320;2023-08-06T08:43:54;10.80;63.00
12847;DHT22;6492;48.128;8.320;2023-08-06T08:47:57;10.70;63.70
12847;DHT22;6492;48.128;8.320;2023-08-06T08:52:02;10.70;65.40
12847;DHT22;6492;48.128;8.320;2023-08-06T08:56:06;11.00;67.60
12847;DHT22;6492;48.128;8.320;2023-08-06T09:00:08;11.00;65.60
12847;DHT22;6492;48.128;8.320;2023-08-06T09:04:10;10.80;63.20
12847;DHT22;6492;48.128;8.320;2023-08-06T09:08:18;10.80;65.10
12847;DHT22;6492;48.128;8.320;2023-08-06T09:12:20;11.00;67.90
12847;DHT22;6492;48.128;8.320;2023-08-06T09:16:22;11.20;63.20
12847;DHT22;6492;48.128;8.320;2023-08-06T09:20:26;11.30;65.00
12847;DHT22;6492;48.128;8.320;2023-08-06T09:24:29;11.20;61.80
12847;DHT22;6492;48.128;8.320;2023-08-06T09:28:37;11.20;64.10
12847;DHT22;6492;48.128;8.320;2023-08-06T09:32:47;11.30;65.30
12847;DHT22;6492;48.128;8.320;2023-08-06T09:36:52;11.40;64.10
12847;DHT22;6492;48.128;8.320;2023-08-06T09:40:55;11.40;63.50
12847;DHT22;6492;48.128;8.320;2023-08-06T09:45:06;11.60;62.60
12847;DHT22;6492;48.128;8.320;2023-08-06T09:49:07;11.70;61.50
12847;DHT22;6492;48.128;8.320;2023-08-06T09:53:10;11.90;59.30
12847;DHT22;6492;48.128;8.320;2023-08-06T09:57:14;11.90;59.90
12847;DHT22;6492;48.128;8.320;2023-08-06T10:01:18;12.20;62.00
12847;DHT22;6492;48.128;8.320;2023-08-06T10:05:21;12.40;54.10
12847;DHT22;6492;48.128;8.320;2023-08-06T10:09:24;12.50;55.70
12847;DHT22;6492;48.128;8.320;2023-08-06T10:13:27;12.70;52.90
12847;DHT22;6492;48.128;8.320;2023-08-06T10:17:31;12.60;52.30
12847;DHT22;6492;48.128;8.320;2023-08-06T10:21:33;12.60;51.60
12847;DHT22;6492;48.128;8.320;2023-08-06T10:25:39;12.50;52.60
12847;DHT22;6492;48.128;8.320;2023-08-06T10:29:43;12.50;50.30
12847;DHT22;6492;48.128;8.320;2023-08-06T10:33:46;12.60;52.80
12847;DHT22;6492;48.128;8.320;2023-08-06T10:37:48;12.70;50.30
12847;DHT22;6492;48.128;8.320;2023-08-06T10:41:50;12.50;48.70
12847;DHT22;6492;48.128;8.320;2023-08-06T10:45:53;12.10;49.20
12847;DHT22;6492;48.128;8.320;2023-08-06T10:49:55;11.80;52.40
12847;DHT22;6492;48.128;8.320;2023-08-06T10:53:58;11.60;54.10
12847;DHT22;6492;48.128;8.320;2023-08-06T10:58:00;11.40;55.40
12847;DHT22;6492;48.128;8.320;2023-08-06T11:02:03;11.60;61.30
12847;DHT22;6492;48.128;8.320;2023-08-06T11:06:07;11.70;56.30
12847;DHT22;6492;48.128;8.320;2023-08-06T11:10:10;11.50;56.90
12847;DHT22;6492;48.128;8.320;2023-08-06T11:14:15;11.30;56.90
12847;DHT22;6492;48.128;8.320;2023-08-06T11:18:18;11.10;59.20
12847;DHT22;6492;48.128;8.320;2023-08-06T11:22:20;11.00;61.10
12847;DHT22;6492;48.128;8.320;2023-08-06T11:26:22;10.80;62.30
12847;DHT22;6492;48.128;8.320;2023-08-06T11:30:26;10.60;64.50
12847;DHT22;6492;48.128;8.320;2023-08-06T11:34:29;10.50;65.70
12847;DHT22;6492;48.128;8.320;2023-08-06T11:38:32;10.30;66.40
12847;DHT22;6492;48.128;8.320;2023-08-06T11:42:35;10.20;67.00
12847;DHT22;6492;48.128;8.320;2023-08-06T11:46:50;10.20;68.70
12847;DHT22;6492;48.128;8.320;2023-08-06T11:50:55;10.30;68.60
12847;DHT22;6492;48.128;8.320;2023-08-06T11:55:02;10.30;65.90
12847;DHT22;6492;48.128;8.320;2023-08-06T11:59:06;10.30;65.90
12847;DHT22;6492;48.128;8.320;2023-08-06T12:03:10;10.30;66.70
12847;DHT22;6492;48.128;8.320;2023-08-06T12:07:13;10.40;68.20
12847;DHT22;6492;48.128;8.320;2023-08-06T12:11:15;10.60;68.10
12847;DHT22;6492;48.128;8.320;2023-08-06T12:15:17;10.70;67.60
12847;DHT22;6492;48.128;8.320;2023-08-06T12:19:19;11.00;68.60
12847;DHT22;6492;48.128;8.320;2023-08-06T12:23:22;11.00;61.90
12847;DHT22;6492;48.128;8.320;2023-08-06T12:27:24;10.90;63.90
12847;DHT22;6492;48.128;8.320;2023-08-06T12:31:26;11.00;62.80
12847;DHT22;6492;48.128;8.320;2023-08-06T12:35:27;11.20;62.10
12847;DHT22;6492;48.128;8.320;2023-08-06T12:39:30;11.50;59.50
12847;DHT22;6492;48.128;8.320;2023-08-06T12:43:33;11.70;57.40
12847;DHT22;6492;48.128;8.320;2023-08-06T12:47:34;11.70;54.40
12847;DHT22;6492;48.128;8.320;2023-08-06T12:51:36;11.60;53.20
12847;DHT22;6492;48.128;8.320;2023-08-06T12:55:40;11.40;52.40
12847;DHT22;6492;48.128;8.320;2023-08-06T12:59:43;11.20;54.10
12847;DHT22;6492;48.128;8.320;2023-08-06T13:03:44;10.80;57.10
12847;DHT22;6492;48.128;8.320;2023-08-06T13:07:46;10.60;60.90
12847;DHT22;6492;48.128;8.320;2023-08-06T13:11:49;10.60;64.70
12847;DHT22;6492;48.128;8.320;2023-08-06T13:15:51;10.50;65.30
12847;DHT22;6492;48.128;8.320;2023-08-06T13:19:53;10.70;65.00
12847;DHT22;6492;48.128;8.320;2023-08-06T13:23:54;10.90;61.60
12847;DHT22;6492;48.128;8.320;2023-08-06T13:27:57;10.90;56.30
12847;DHT22;6492;48.128;8.320;2023-08-06T13:31:59;11.10;59.80
12847;DHT22;6492;48.128;8.320;2023-08-06T13:36:01;11.10;57.40
12847;DHT22;6492;48.128;8.320;2023-08-06T13:40:04;11.00;54.30
12847;DHT22;6492;48.128;8.320;2023-08-06T13:44:08;10.70;57.10
12847;DHT22;6492;48.128;8.320;2023-08-06T13:48:11;10.40;57.90
12847;DHT22;6492;48.128;8.320;2023-08-06T13:52:13;10.20;60.80
12847;DHT22;6492;48.128;8.320;2023-08-06T13:56:14;10.20;63.40
12847;DHT22;6492;48.128;8.320;2023-08-06T14:00:21;10.30;65.20
12847;DHT22;6492;48.128;8.320;2023-08-06T14:04:23;10.50;64.10
12847;DHT22;6492;48.128;8.320;2023-08-06T14:08:25;10.40;59.10
12847;DHT22;6492;48.128;8.320;2023-08-06T14:12:26;10.20;59.10
12847;DHT22;6492;48.128;8.320;2023-08-06T14:16:30;10.00;59.80
12847;DHT22;6492;48.128;8.320;2023-08-06T14:20:31;9.80;61.50
12847;DHT22;6492;48.128;8.320;2023-08-06T14:24:33;9.80;62.30
12847;DHT22;6492;48.128;8.320;2023-08-06T14:28:35;9.70;63.60
12847;DHT22;6492;48.128;8.320;2023-08-06T14:32:38;9.90;64.20
12847;DHT22;6492;48.128;8.320;2023-08-06T14:36:40;10.10;64.20
12847;DHT22;6492;48.128;8.320;2023-08-06T14:40:43;10.20;60.50
12847;DHT22;6492;48.128;8.320;2023-08-06T14:44:45;10.20;57.90
12847;DHT22;6492;48.128;8.320;2023-08-06T14:48:48;10.00;58.90
12847;DHT22;6492;48.128;8.320;2023-08-06T14:52:50;9.80;60.90
12847;DHT22;6492;48.128;8.320;2023-08-06T14:56:52;9.60;58.50
12847;DHT22;6492;48.128;8.320;2023-08-06T15:00:54;9.80;56.60
12847;DHT22;6492;48.128;8.320;2023-08-06T15:04:57;9.90;59.00
12847;DHT22;6492;48.128;8.320;2023-08-06T15:08:58;10.00;59.20
12847;DHT22;6492;48.128;8.320;2023-08-06T15:13:02;10.30;58.60
12847;DHT22;6492;48.128;8.320;2023-08-06T15:17:04;10.30;57.60
12847;DHT22;6492;48.128;8.320;2023-08-06T15:21:07;10.20;55.60
12847;DHT22;6492;48.128;8.320;2023-08-06T15:25:09;10.20;57.50
12847;DHT22;6492;48.128;8.320;2023-08-06T15:29:11;10.20;59.10
12847;DHT22;6492;48.128;8.320;2023-08-06T15:33:12;10.20;60.20
12847;DHT22;6492;48.128;8.320;2023-08-06T15:37:15;10.20;60.00
12847;DHT22;6492;48.128;8.320;2023-08-06T15:41:18;10.20;59.30
12847;DHT22;6492;48.128;8.320;2023-08-06T15:45:20;10.10;58.90
12847;DHT22;6492;48.128;8.320;2023-08-06T15:49:21;10.00;55.60
12847;DHT22;6492;48.128;8.320;2023-08-06T15:53:25;10.10;55.10
12847;DHT22;6492;48.128;8.320;2023-08-06T15:57:26;10.20;55.60
12847;DHT22;6492;48.128;8.320;2023-08-06T16:01:28;10.10;51.40
12847;DHT22;6492;48.128;8.320;2023-08-06T16:05:30;10.00;52.50
12847;DHT22;6492;48.128;8.320;2023-08-06T16:09:33;9.80;55.80
12847;DHT22;6492;48.128;8.320;2023-08-06T16:13:35;9.70;57.60
12847;DHT22;6492;48.128;8.320;2023-08-06T16:17:37;9.70;58.50
12847;DHT22;6492;48.128;8.320;2023-08-06T16:21:38;9.70;58.50
12847;DHT22;6492;48.128;8.320;2023-08-06T16:25:41;9.70;59.30
12847;DHT22;6492;48.128;8.320;2023-08-06T16:29:47;9.60;57.70
12847;DHT22;6492;48.128;8.320;2023-08-06T16:33:49;9.60;58.70
12847;DHT22;6492;48.128;8.320;2023-08-06T16:37:52;9.60;58.60
12847;DHT22;6492;48.128;8.320;2023-08-06T16:41:55;9.50;59.00
12847;DHT22;6492;48.128;8.320;2023-08-06T16:45:59;9.40;59.60
12847;DHT22;6492;48.128;8.320;2023-08-06T16:50:01;9.30;61.60
12847;DHT22;6492;48.128;8.320;2023-08-06T16:54:02;9.20;64.60
12847;DHT22;6492;48.128;8.320;2023-08-06T16:58:05;9.10;60.40
12847;DHT22;6492;48.128;8.320;2023-08-06T17:02:07;9.10;60.90
12847;DHT22;6492;48.128;8.320;2023-08-06T17:06:09;9.00;61.40
12847;DHT22;6492;48.128;8.320;2023-08-06T17:10:15;9.00;62.80
12847;DHT22;6492;48.128;8.320;2023-08-06T17:14:21;8.90;63.60
12847;DHT22;6492;48.128;8.320;2023-08-06T17:18:23;8.90;64.70
12847;DHT22;6492;48.128;8.320;2023-08-06T17:22:25;8.90;64.20
12847;DHT22;6492;48.128;8.320;2023-08-06T17:26:27;8.80;65.00
12847;DHT22;6492;48.128;8.320;2023-08-06T17:30:31;8.80;65.20
12847;DHT22;6492;48.128;8.320;2023-08-06T17:34:33;8.80;66.60
12847;DHT22;6492;48.128;8.320;2023-08-06T17:38:35;8.80;67.00
12847;DHT22;6492;48.128;8.320;2023-08-06T17:42:37;8.90;66.70
12847;DHT22;6492;48.128;8.320;2023-08-06T17:46:40;8.80;66.80
12847;DHT22;6492;48.128;8.320;2023-08-06T17:50:43;8.80;66.70
12847;DHT22;6492;48.128;8.320;2023-08-06T17:54:45;8.80;67.30
12847;DHT22;6492;48.128;8.320;2023-08-06T17:58:47;8.70;68.00
12847;DHT22;6492;48.128;8.320;2023-08-06T18:02:50;8.70;66.20
12847;DHT22;6492;48.128;8.320;2023-08-06T18:06:52;8.60;65.90
12847;DHT22;6492;48.128;8.320;2023-08-06T18:10:59;8.60;62.30
12847;DHT22;6492;48.128;8.320;2023-08-06T18:15:00;8.60;64.40
12847;DHT22;6492;48.128;8.320;2023-08-06T18:19:04;8.60;64.40
12847;DHT22;6492;48.128;8.320;2023-08-06T18:23:05;8.50;64.20
12847;DHT22;6492;48.128;8.320;2023-08-06T18:27:07;8.50;64.80
12847;DHT22;6492;48.128;8.320;2023-08-06T18:31:09;8.50;65.10
12847;DHT22;6492;48.128;8.320;2023-08-06T18:35:12;8.50;65.70
12847;DHT22;6492;48.128;8.320;2023-08-06T18:39:14;8.40;66.50
12847;DHT22;6492;48.128;8.320;2023-08-06T18:43:16;8.40;67.50
12847;DHT22;6492;48.128;8.320;2023-08-06T18:47:18;8.40;68.30
12847;DHT22;6492;48.128;8.320;2023-08-06T18:51:21;8.40;68.90
12847;DHT22;6492;48.128;8.320;2023-08-06T18:55:24;8.40;69.40
12847;DHT22;6492;48.128;8.320;2023-08-06T18:59:25;8.50;70.20
12847;DHT22;6492;48.128;8.320;2023-08-06T19:03:27;8.40;69.90
12847;DHT22;6492;48.128;8.320;2023-08-06T19:07:30;8.40;70.10
12847;DHT22;6492;48.128;8.320;2023-08-06T19:11:32;8.40;70.00
12847;DHT22;6492;48.128;8.320;2023-08-06T19:15:34;8.40;70.20
12847;DHT22;6492;48.128;8.320;2023-08-06T19:19:36;8.40;70.20
12847;DHT22;6492;48.128;8.320;2023-08-06T19:23:39;8.40;69.40
12847;DHT22;6492;48.128;8.320;2023-08-06T19:27:41;8.40;69.40
12847;DHT22;6492;48.128;8.320;2023-08-06T19:31:42;8.50;69.20
12847;DHT22;6492;48.128;8.320;2023-08-06T19:35:46;8.40;68.40
12847;DHT22;6492;48.128;8.320;2023-08-06T19:39:50;8.40;67.30
12847;DHT22;6492;48.128;8.320;2023-08-06T19:43:52;8.40;66.10
12847;DHT22;6492;48.128;8.320;2023-08-06T19:47:54;8.40;66.10
12847;DHT22;6492;48.128;8.320;2023-08-06T19:51:55;8.30;66.30
12847;DHT22;6492;48.128;8.320;2023-08-06T19:56:00;8.20;68.00
12847;DHT22;6492;48.128;8.320;2023-08-06T20:00:02;8.30;68.40
12847;DHT22;6492;48.128;8.320;2023-08-06T20:04:05;8.30;69.50
12847;DHT22;6492;48.128;8.320;2023-08-06T20:08:07;8.20;68.40
12847;DHT22;6492;48.128;8.320;2023-08-06T20:12:10;8.20;69.20
12847;DHT22;6492;48.128;8.320;2023-08-06T20:16:12;8.20;70.10
12847;DHT22;6492;48.128;8.320;2023-08-06T20:20:14;8.20;70.60
12847;DHT22;6492;48.128;8.320;2023-08-06T20:24:15;8.20;71.20
12847;DHT22;6492;48.128;8.320;2023-08-06T20:28:18;8.20;71.70
12847;DHT22;6492;48.128;8.320;2023-08-06T20:32:20;8.20;71.70
12847;DHT22;6492;48.128;8.320;2023-08-06T20:36:22;8.10;71.80
12847;DHT22;6492;48.128;8.320;2023-08-06T20:40:24;8.10;72.00
12847;DHT22;6492;48.128;8.320;2023-08-06T20:44:27;8.10;71.90
12847;DHT22;6492;48.128;8.320;2023-08-06T20:48:30;8.10;71.90
12847;DHT22;6492;48.128;8.320;2023-08-06T20:52:35;8.10;71.70
12847;DHT22;6492;48.128;8.320;2023-08-06T20:56:37;8.00;71.60
12847;DHT22;6492;48.128;8.320;2023-08-06T21:00:41;8.00;71.40
12847;DHT22;6492;48.128;8.320;2023-08-06T21:04:43;7.90;71.80
12847;DHT22;6492;48.128;8.320;2023-08-06T21:08:45;8.00;72.10
12847;DHT22;6492;48.128;8.320;2023-08-06T21:12:46;7.90;72.40
12847;DHT22;6492;48.128;8.320;2023-08-06T21:16:49;7.90;72.70
12847;DHT22;6492;48.128;8.320;2023-08-06T21:20:52;7.90;72.90
12847;DHT22;6492;48.128;8.320;2023-08-06T21:24:54;7.90;72.90
12847;DHT22;6492;48.128;8.320;2023-08-06T21:28:56;7.90;73.30
12847;DHT22;6492;48.128;8.320;2023-08-06T21:32:59;7.90;73.20
12847;DHT22;6492;48.128;8.320;2023-08-06T21:37:01;7.90;73.50
12847;DHT22;6492;48.128;8.320;2023-08-06T21:41:03;7.90;73.50
12847;DHT22;6492;48.128;8.320;2023-08-06T21:45:06;7.80;73.60
12847;DHT22;6492;48.128;8.320;2023-08-06T21:49:09;7.80;73.90
12847;DHT22;6492;48.128;8.320;2023-08-06T21:53:10;7.80;74.00
12847;DHT22;6492;48.128;8.320;2023-08-06T21:57:12;7.80;74.10
12847;DHT22;6492;48.128;8.320;2023-08-06T22:01:15;7.80;74.20
12847;DHT22;6492;48.128;8.320;2023-08-06T22:05:18;7.90;74.60
12847;DHT22;6492;48.128;8.320;2023-08-06T22:09:20;7.90;74.80
12847;DHT22;6492;48.128;8.320;2023-08-06T22:13:22;7.90;74.90
12847;DHT22;6492;48.128;8.320;2023-08-06T22:17:24;8.00;74.90
12847;DHT22;6492;48.128;8.320;2023-08-06T22:21:27;8.00;74.90
12847;DHT22;6492;48.128;8.320;2023-08-06T22:25:29;7.70;71.30
12847;DHT22;6492;48.128;8.320;2023-08-06T22:29:31;7.30;67.00
12847;DHT22;6492;48.128;8.320;2023-08-06T22:33:32;7.10;68.30
12847;DHT22;6492;48.128;8.320;2023-08-06T22:37:36;7.10;70.40
12847;DHT22;6492;48.128;8.320;2023-08-06T22:41:37;7.10;72.00
12847;DHT22;6492;48.128;8.320;2023-08-06T22:45:39;7.10;73.10
12847;DHT22;6492;48.128;8.320;2023-08-06T22:49:41;7.20;73.80
12847;DHT22;6492;48.128;8.320;2023-08-06T22:53:45;7.20;75.20
12847;DHT22;6492;48.128;8.320;2023-08-06T22:57:47;7.30;74.80
12847;DHT22;6492;48.128;8.320;2023-08-06T23:01:48;7.30;75.10
12847;DHT22;6492;48.128;8.320;2023-08-06T23:05:50;7.40;75.40
12847;DHT22;6492;48.128;8.320;2023-08-06T23:09:53;7.40;75.60
12847;DHT22;6492;48.128;8.320;2023-08-06T23:13:55;7.40;75.90
12847;DHT22;6492;48.128;8.320;2023-08-06T23:17:57;7.50;76.10
12847;DHT22;6492;48.128;8.320;2023-08-06T23:21:58;7.60;76.10
12847;DHT22;6492;48.128;8.320;2023-08-06T23:26:02;7.60;77.10
12847;DHT22;6492;48.128;8.320;2023-08-06T23:30:06;7.70;76.40
12847;DHT22;6492;48.128;8.320;2023-08-06T23:34:07;7.70;76.50
12847;DHT22;6492;48.128;8.320;2023-08-06T23:38:09;7.70;76.50
12847;DHT22;6492;48.128;8.320;2023-08-06T23:42:12;7.70;76.60
12847;DHT22;6492;48.128;8.320;2023-08-06T23:46:14;7.70;76.60
12847;DHT22;6492;48.128;8.320;2023-08-06T23:50:16;7.80;76.60
12847;DHT22;6492;48.128;8.320;2023-08-06T23:54:18;7.80;76.60
12847;DHT22;6492;48.128;8.320;2023-08-06T23:58:21;7.70;76.50
